createdAt,value
2022-09-03T00:00:56.750Z,979.78
2022-09-03T00:01:56.787Z,979.70
2022-09-03T00:02:56.758Z,979.79
2022-09-03T00:03:56.722Z,979.82
2022-09-03T00:04:56.767Z,979.79
2022-09-03T00:05:56.702Z,979.79
2022-09-03T00:06:56.695Z,979.79
2022-09-03T00:07:56.680Z,979.80
2022-09-03T00:08:56.675Z,979.77
2022-09-03T00:09:56.663Z,979.83
2022-09-03T00:10:56.682Z,979.81
2022-09-03T00:11:56.646Z,979.78
2022-09-03T00:12:56.636Z,979.74
2022-09-03T00:13:56.624Z,979.76
2022-09-03T00:14:56.621Z,979.77
2022-09-03T00:15:56.659Z,979.73
2022-09-03T00:16:56.597Z,979.68
2022-09-03T00:17:56.585Z,979.69
2022-09-03T00:18:56.598Z,979.72
2022-09-03T00:19:56.569Z,979.69
2022-09-03T00:20:56.557Z,979.70
2022-09-03T00:21:56.583Z,979.70
2022-09-03T00:22:56.538Z,979.63
2022-09-03T00:23:56.530Z,979.67
2022-09-03T00:24:56.521Z,979.71
2022-09-03T00:25:56.512Z,979.65
2022-09-03T00:26:56.533Z,979.64
2022-09-03T00:27:56.493Z,979.74
2022-09-03T00:28:56.486Z,979.67
2022-09-03T00:29:56.475Z,979.66
2022-09-03T00:30:56.507Z,979.68
2022-09-03T00:31:56.457Z,979.71
2022-09-03T00:32:56.472Z,979.72
2022-09-03T00:33:56.433Z,979.79
2022-09-03T00:34:56.421Z,979.74
2022-09-03T00:35:56.409Z,979.75
2022-09-03T00:36:56.402Z,979.74
2022-09-03T00:37:56.422Z,979.76
2022-09-03T00:38:56.381Z,979.71
2022-09-03T00:39:56.429Z,979.73
2022-09-03T00:40:56.363Z,979.76
2022-09-03T00:41:56.352Z,979.70
2022-09-03T00:42:56.342Z,979.62
2022-09-03T00:43:56.379Z,979.76
2022-09-03T00:44:56.325Z,979.70
2022-09-03T00:45:56.326Z,979.69
2022-09-03T00:46:56.307Z,979.74
2022-09-03T00:47:56.294Z,979.63
2022-09-03T00:48:56.317Z,979.72
2022-09-03T00:49:56.273Z,979.77
2022-09-03T00:50:56.273Z,979.71
2022-09-03T00:51:56.259Z,979.66
2022-09-03T00:52:56.250Z,979.66
2022-09-03T00:53:56.239Z,979.68
2022-09-03T00:54:56.323Z,979.68
2022-09-03T00:55:56.226Z,979.73
2022-09-03T00:56:56.213Z,979.72
2022-09-03T00:57:56.205Z,979.72
2022-09-03T00:58:56.196Z,979.68
2022-09-03T00:59:56.263Z,979.69
2022-09-03T01:00:56.187Z,979.69
2022-09-03T01:01:56.267Z,979.67
2022-09-03T01:02:56.158Z,979.65
2022-09-03T01:03:56.146Z,979.71
2022-09-03T01:04:56.140Z,979.64
2022-09-03T01:06:01.019Z,979.63
2022-09-03T01:06:58.150Z,979.63
2022-09-03T01:07:56.107Z,979.65
2022-09-03T01:08:56.144Z,979.64
2022-09-03T01:09:56.081Z,979.63
2022-09-03T01:10:57.117Z,979.69
2022-09-03T01:11:56.074Z,979.66
2022-09-03T01:12:56.077Z,979.62
2022-09-03T01:13:56.055Z,979.69
2022-09-03T01:14:56.046Z,979.70
2022-09-03T01:15:56.117Z,979.70
2022-09-03T01:16:56.026Z,979.65
2022-09-03T01:17:56.016Z,979.71
2022-09-03T01:18:56.008Z,979.69
2022-09-03T01:19:55.998Z,979.69
2022-09-03T01:20:55.985Z,979.73
2022-09-03T01:21:56.007Z,979.72
2022-09-03T01:22:55.970Z,979.74
2022-09-03T01:23:55.963Z,979.70
2022-09-03T01:24:55.952Z,979.75
2022-09-03T01:25:55.941Z,979.73
2022-09-03T01:26:55.962Z,979.68
2022-09-03T01:27:55.925Z,979.70
2022-09-03T01:28:55.911Z,979.68
2022-09-03T01:29:55.901Z,979.69
2022-09-03T01:30:55.935Z,979.70
2022-09-03T01:31:55.882Z,979.75
2022-09-03T01:32:55.905Z,979.67
2022-09-03T01:33:55.861Z,979.68
2022-09-03T01:34:55.850Z,979.70
2022-09-03T01:35:55.842Z,979.68
2022-09-03T01:36:55.830Z,979.70
2022-09-03T01:37:55.851Z,979.64
2022-09-03T01:38:55.812Z,979.65
2022-09-03T01:39:55.845Z,979.68
2022-09-03T01:40:55.800Z,979.66
2022-09-03T01:41:55.785Z,979.65
2022-09-03T01:42:55.771Z,979.63
2022-09-03T01:43:55.797Z,979.61
2022-09-03T01:44:55.754Z,979.70
2022-09-03T01:45:55.766Z,979.72
2022-09-03T01:46:55.735Z,979.66
2022-09-03T01:47:55.722Z,979.70
2022-09-03T01:48:55.743Z,979.73
2022-09-03T01:49:55.706Z,979.70
2022-09-03T01:50:55.695Z,979.71
2022-09-03T01:51:55.688Z,979.74
2022-09-03T01:52:55.680Z,979.79
2022-09-03T01:53:55.669Z,979.76
2022-09-03T01:54:55.688Z,979.73
2022-09-03T01:55:55.650Z,979.76
2022-09-03T01:56:55.636Z,979.79
2022-09-03T01:57:55.629Z,979.81
2022-09-03T01:58:55.620Z,979.84
2022-09-03T01:59:55.696Z,979.78
2022-09-03T02:00:55.594Z,979.77
2022-09-03T02:01:55.607Z,979.77
2022-09-03T02:02:55.649Z,979.80
2022-09-03T02:03:55.569Z,979.81
2022-09-03T02:04:55.559Z,979.77
2022-09-03T02:05:55.584Z,979.78
2022-09-03T02:06:55.545Z,979.78
2022-09-03T02:07:55.534Z,979.81
2022-09-03T02:08:55.550Z,979.77
2022-09-03T02:09:55.521Z,979.85
2022-09-03T02:10:55.537Z,979.81
2022-09-03T02:11:55.499Z,979.80
2022-09-03T02:12:55.527Z,979.83
2022-09-03T02:13:55.480Z,979.86
2022-09-03T02:14:55.470Z,979.81
2022-09-03T02:15:55.540Z,979.78
2022-09-03T02:16:55.484Z,979.86
2022-09-03T02:17:55.447Z,979.85
2022-09-03T02:18:55.428Z,979.80
2022-09-03T02:19:55.424Z,979.80
2022-09-03T02:20:55.414Z,979.75
2022-09-03T02:21:55.432Z,979.78
2022-09-03T02:22:55.390Z,979.88
2022-09-03T02:23:55.379Z,979.75
2022-09-03T02:24:55.368Z,979.76
2022-09-03T02:25:55.359Z,979.80
2022-09-03T02:26:55.355Z,979.76
2022-09-03T02:27:55.367Z,979.70
2022-09-03T02:28:55.328Z,979.80
2022-09-03T02:29:55.320Z,979.81
2022-09-03T02:30:55.363Z,979.81
2022-09-03T02:31:55.303Z,979.84
2022-09-03T02:32:55.319Z,979.79
2022-09-03T02:33:55.282Z,979.79
2022-09-03T02:34:55.271Z,979.80
2022-09-03T02:35:55.305Z,979.74
2022-09-03T02:36:55.249Z,979.76
2022-09-03T02:37:55.241Z,979.74
2022-09-03T02:38:55.264Z,979.73
2022-09-03T02:39:55.247Z,979.70
2022-09-03T02:40:55.218Z,979.65
2022-09-03T02:41:55.191Z,979.75
2022-09-03T02:42:56.189Z,979.69
2022-09-03T02:43:55.218Z,979.69
2022-09-03T02:44:55.173Z,979.75
2022-09-03T02:45:55.272Z,979.68
2022-09-03T02:46:55.152Z,979.68
2022-09-03T02:47:55.147Z,979.62
2022-09-03T02:48:55.146Z,979.66
2022-09-03T02:49:55.161Z,979.68
2022-09-03T02:50:55.112Z,979.69
2022-09-03T02:51:55.098Z,979.67
2022-09-03T02:52:55.091Z,979.63
2022-09-03T02:53:55.080Z,979.67
2022-09-03T02:54:55.105Z,979.65
2022-09-03T02:55:55.062Z,979.72
2022-09-03T02:56:55.051Z,979.65
2022-09-03T02:57:55.046Z,979.61
2022-09-03T02:58:55.032Z,979.61
2022-09-03T02:59:55.022Z,979.64
2022-09-03T03:00:55.125Z,979.65
2022-09-03T03:01:55.005Z,979.54
2022-09-03T03:02:55.035Z,979.60
2022-09-03T03:03:54.979Z,979.57
2022-09-03T03:04:54.993Z,979.65
2022-09-03T03:05:54.997Z,979.61
2022-09-03T03:06:54.948Z,979.63
2022-09-03T03:07:54.938Z,979.62
2022-09-03T03:08:54.931Z,979.56
2022-09-03T03:09:54.936Z,979.60
2022-09-03T03:10:54.916Z,979.64
2022-09-03T03:11:54.930Z,979.58
2022-09-03T03:12:54.898Z,979.58
2022-09-03T03:13:54.885Z,979.57
2022-09-03T03:14:54.874Z,979.60
2022-09-03T03:15:54.868Z,979.58
2022-09-03T03:16:54.969Z,979.56
2022-09-03T03:17:54.848Z,979.62
2022-09-03T03:18:54.836Z,979.60
2022-09-03T03:19:54.827Z,979.57
2022-09-03T03:20:54.819Z,979.54
2022-09-03T03:21:54.813Z,979.56
2022-09-03T03:22:54.824Z,979.49
2022-09-03T03:23:54.784Z,979.56
2022-09-03T03:24:54.776Z,979.46
2022-09-03T03:25:54.772Z,979.55
2022-09-03T03:26:54.760Z,979.53
2022-09-03T03:27:54.784Z,979.50
2022-09-03T03:28:54.746Z,979.48
2022-09-03T03:29:54.733Z,979.54
2022-09-03T03:30:54.764Z,979.51
2022-09-03T03:31:54.719Z,979.52
2022-09-03T03:32:54.704Z,979.53
2022-09-03T03:33:54.719Z,979.53
2022-09-03T03:34:54.682Z,979.50
2022-09-03T03:35:54.670Z,979.61
2022-09-03T03:36:54.656Z,979.59
2022-09-03T03:37:54.650Z,979.56
2022-09-03T03:38:54.667Z,979.55
2022-09-03T03:39:54.729Z,979.58
2022-09-03T03:40:54.621Z,979.61
2022-09-03T03:41:54.615Z,979.60
2022-09-03T03:42:54.609Z,979.58
2022-09-03T03:43:54.589Z,979.57
2022-09-03T03:44:54.618Z,979.59
2022-09-03T03:45:54.636Z,979.57
2022-09-03T03:46:54.573Z,979.56
2022-09-03T03:47:54.586Z,979.60
2022-09-03T03:48:54.544Z,979.60
2022-09-03T03:49:54.594Z,979.60
2022-09-03T03:50:54.520Z,979.60
2022-09-03T03:51:54.509Z,979.63
2022-09-03T03:52:54.499Z,979.59
2022-09-03T03:53:54.490Z,979.62
2022-09-03T03:54:54.480Z,979.57
2022-09-03T03:55:54.500Z,979.50
2022-09-03T03:56:55.554Z,979.54
2022-09-03T03:57:54.449Z,979.54
2022-09-03T03:58:54.442Z,979.49
2022-09-03T03:59:54.435Z,979.50
2022-09-03T04:00:54.536Z,979.48
2022-09-03T04:01:54.578Z,979.52
2022-09-03T04:02:54.478Z,979.53
2022-09-03T04:03:54.417Z,979.50
2022-09-03T04:04:54.381Z,979.57
2022-09-03T04:05:54.374Z,979.50
2022-09-03T04:06:54.384Z,979.51
2022-09-03T04:07:54.348Z,979.50
2022-09-03T04:08:54.343Z,979.51
2022-09-03T04:09:54.323Z,979.49
2022-09-03T04:10:54.328Z,979.49
2022-09-03T04:11:54.359Z,979.52
2022-09-03T04:12:54.304Z,979.53
2022-09-03T04:13:54.291Z,979.50
2022-09-03T04:14:54.278Z,979.52
2022-09-03T04:15:54.271Z,979.47
2022-09-03T04:16:54.343Z,979.44
2022-09-03T04:17:54.280Z,979.44
2022-09-03T04:18:54.246Z,979.41
2022-09-03T04:19:54.231Z,979.45
2022-09-03T04:20:54.223Z,979.41
2022-09-03T04:21:54.210Z,979.42
2022-09-03T04:22:54.229Z,979.43
2022-09-03T04:23:54.193Z,979.43
2022-09-03T04:24:54.194Z,979.42
2022-09-03T04:25:54.172Z,979.41
2022-09-03T04:26:54.162Z,979.38
2022-09-03T04:27:54.153Z,979.31
2022-09-03T04:28:54.174Z,979.36
2022-09-03T04:29:54.134Z,979.38
2022-09-03T04:30:54.164Z,979.32
2022-09-03T04:31:54.109Z,979.33
2022-09-03T04:32:54.101Z,979.35
2022-09-03T04:33:54.118Z,979.36
2022-09-03T04:34:54.080Z,979.41
2022-09-03T04:35:54.072Z,979.35
2022-09-03T04:36:54.073Z,979.36
2022-09-03T04:37:54.049Z,979.31
2022-09-03T04:38:54.044Z,979.37
2022-09-03T04:39:54.142Z,979.33
2022-09-03T04:40:54.022Z,979.35
2022-09-03T04:41:54.010Z,979.36
2022-09-03T04:42:54.001Z,979.31
2022-09-03T04:43:53.991Z,979.33
2022-09-03T04:44:54.007Z,979.35
2022-09-03T04:45:54.023Z,979.37
2022-09-03T04:46:53.958Z,979.35
2022-09-03T04:47:53.948Z,979.37
2022-09-03T04:48:53.938Z,979.30
2022-09-03T04:49:53.936Z,979.39
2022-09-03T04:50:53.951Z,979.40
2022-09-03T04:51:53.911Z,979.38
2022-09-03T04:52:53.903Z,979.37
2022-09-03T04:53:53.900Z,979.43
2022-09-03T04:54:53.877Z,979.45
2022-09-03T04:55:53.907Z,979.38
2022-09-03T04:56:53.882Z,979.44
2022-09-03T04:57:53.852Z,979.35
2022-09-03T04:58:53.839Z,979.38
2022-09-03T04:59:53.836Z,979.35
2022-09-03T05:00:53.875Z,979.45
2022-09-03T05:01:53.944Z,979.42
2022-09-03T05:02:53.806Z,979.39
2022-09-03T05:03:53.804Z,979.48
2022-09-03T05:04:53.787Z,979.42
2022-09-03T05:05:53.776Z,979.49
2022-09-03T05:06:53.793Z,979.44
2022-09-03T05:07:53.764Z,979.44
2022-09-03T05:08:53.754Z,979.45
2022-09-03T05:09:53.739Z,979.42
2022-09-03T05:10:55.084Z,979.41
2022-09-03T05:11:53.716Z,979.37
2022-09-03T05:12:53.738Z,979.43
2022-09-03T05:13:53.705Z,979.41
2022-09-03T05:14:53.689Z,979.40
2022-09-03T05:15:53.683Z,979.37
2022-09-03T05:16:53.737Z,979.42
2022-09-03T05:17:53.694Z,979.35
2022-09-03T05:18:53.653Z,979.39
2022-09-03T05:19:53.643Z,979.32
2022-09-03T05:20:53.632Z,979.35
2022-09-03T05:21:53.619Z,979.28
2022-09-03T05:22:53.612Z,979.29
2022-09-03T05:23:53.630Z,979.34
2022-09-03T05:24:53.597Z,979.24
2022-09-03T05:25:53.583Z,979.32
2022-09-03T05:26:53.576Z,979.33
2022-09-03T05:27:53.563Z,979.39
2022-09-03T05:28:53.589Z,979.33
2022-09-03T05:29:53.547Z,979.37
2022-09-03T05:30:53.538Z,979.40
2022-09-03T05:31:53.611Z,979.38
2022-09-03T05:32:53.516Z,979.33
2022-09-03T05:33:53.510Z,979.35
2022-09-03T05:34:53.529Z,979.39
2022-09-03T05:35:53.494Z,979.37
2022-09-03T05:36:53.480Z,979.39
2022-09-03T05:37:53.470Z,979.38
2022-09-03T05:38:53.462Z,979.36
2022-09-03T05:39:53.527Z,979.37
2022-09-03T05:40:53.438Z,979.37
2022-09-03T05:41:53.435Z,979.41
2022-09-03T05:42:53.424Z,979.30
2022-09-03T05:43:53.419Z,979.34
2022-09-03T05:44:53.404Z,979.30
2022-09-03T05:45:53.476Z,979.38
2022-09-03T05:46:53.387Z,979.33
2022-09-03T05:47:53.378Z,979.29
2022-09-03T05:48:53.369Z,979.30
2022-09-03T05:49:53.361Z,979.27
2022-09-03T05:50:53.383Z,979.29
2022-09-03T05:51:53.340Z,979.29
2022-09-03T05:52:53.330Z,979.28
2022-09-03T05:53:53.320Z,979.28
2022-09-03T05:54:53.309Z,979.26
2022-09-03T05:55:53.303Z,979.25
2022-09-03T05:56:53.319Z,979.28
2022-09-03T05:57:53.281Z,979.29
2022-09-03T05:58:53.278Z,979.26
2022-09-03T05:59:53.261Z,979.35
2022-09-03T06:00:53.248Z,979.34
2022-09-03T06:01:58.080Z,979.34
2022-09-03T06:02:54.396Z,979.33
2022-09-03T06:03:53.221Z,979.33
2022-09-03T06:04:53.280Z,979.32
2022-09-03T06:05:53.205Z,979.34
2022-09-03T06:06:53.195Z,979.31
2022-09-03T06:07:53.216Z,979.32
2022-09-03T06:08:53.170Z,979.31
2022-09-03T06:09:53.161Z,979.33
2022-09-03T06:10:53.152Z,979.30
2022-09-03T06:11:53.143Z,979.32
2022-09-03T06:12:53.166Z,979.35
2022-09-03T06:13:53.131Z,979.31
2022-09-03T06:14:53.110Z,979.40
2022-09-03T06:15:53.108Z,979.32
2022-09-03T06:16:53.418Z,979.31
2022-09-03T06:17:53.093Z,979.37
2022-09-03T06:18:53.111Z,979.34
2022-09-03T06:19:53.058Z,979.37
2022-09-03T06:20:53.053Z,979.35
2022-09-03T06:21:53.046Z,979.32
2022-09-03T06:22:53.037Z,979.37
2022-09-03T06:23:53.060Z,979.39
2022-09-03T06:24:53.045Z,979.35
2022-09-03T06:25:54.022Z,979.39
2022-09-03T06:26:52.997Z,979.40
2022-09-03T06:27:52.987Z,979.44
2022-09-03T06:28:52.979Z,979.42
2022-09-03T06:29:52.997Z,979.37
2022-09-03T06:30:52.958Z,979.28
2022-09-03T06:31:53.003Z,979.30
2022-09-03T06:32:52.942Z,979.36
2022-09-03T06:33:52.940Z,979.33
2022-09-03T06:34:52.961Z,979.36
2022-09-03T06:35:52.912Z,979.40
2022-09-03T06:36:54.679Z,979.34
2022-09-03T06:37:52.895Z,979.41
2022-09-03T06:38:52.882Z,979.39
2022-09-03T06:39:52.984Z,979.37
2022-09-03T06:40:52.903Z,979.39
2022-09-03T06:41:52.854Z,979.34
2022-09-03T06:42:52.849Z,979.32
2022-09-03T06:43:52.839Z,979.31
2022-09-03T06:44:52.831Z,979.30
2022-09-03T06:45:52.934Z,979.29
2022-09-03T06:46:52.811Z,979.30
2022-09-03T06:47:52.802Z,979.23
2022-09-03T06:48:52.789Z,979.33
2022-09-03T06:49:52.780Z,979.35
2022-09-03T06:50:52.770Z,979.34
2022-09-03T06:51:52.789Z,979.33
2022-09-03T06:52:52.747Z,979.35
2022-09-03T06:53:52.742Z,979.32
2022-09-03T06:54:52.730Z,979.32
2022-09-03T06:55:52.719Z,979.31
2022-09-03T06:56:52.741Z,979.28
2022-09-03T06:57:52.950Z,979.26
2022-09-03T06:58:52.693Z,979.29
2022-09-03T06:59:52.682Z,979.28
2022-09-03T07:00:52.769Z,979.31
2022-09-03T07:01:52.755Z,979.32
2022-09-03T07:02:52.720Z,979.31
2022-09-03T07:03:52.639Z,979.31
2022-09-03T07:04:52.632Z,979.26
2022-09-03T07:05:52.619Z,979.28
2022-09-03T07:06:52.610Z,979.25
2022-09-03T07:07:52.629Z,979.32
2022-09-03T07:08:52.589Z,979.31
2022-09-03T07:09:52.578Z,979.31
2022-09-03T07:10:52.571Z,979.27
2022-09-03T07:11:52.559Z,979.26
2022-09-03T07:12:52.549Z,979.30
2022-09-03T07:13:52.566Z,979.36
2022-09-03T07:14:53.530Z,979.28
2022-09-03T07:15:52.582Z,979.33
2022-09-03T07:16:52.510Z,979.27
2022-09-03T07:17:52.502Z,979.33
2022-09-03T07:18:52.523Z,979.30
2022-09-03T07:19:52.483Z,979.25
2022-09-03T07:20:52.474Z,979.29
2022-09-03T07:21:52.465Z,979.17
2022-09-03T07:22:52.456Z,979.28
2022-09-03T07:23:52.448Z,979.29
2022-09-03T07:24:52.469Z,979.32
2022-09-03T07:25:52.421Z,979.29
2022-09-03T07:26:52.449Z,979.27
2022-09-03T07:27:52.465Z,979.22
2022-09-03T07:28:52.395Z,979.27
2022-09-03T07:29:52.412Z,979.26
2022-09-03T07:30:52.373Z,979.24
2022-09-03T07:31:52.993Z,979.29
2022-09-03T07:32:52.353Z,979.29
2022-09-03T07:33:52.340Z,979.31
2022-09-03T07:34:52.333Z,979.30
2022-09-03T07:35:52.351Z,979.26
2022-09-03T07:36:52.317Z,979.28
2022-09-03T07:37:52.309Z,979.36
2022-09-03T07:38:52.291Z,979.30
2022-09-03T07:39:52.361Z,979.35
2022-09-03T07:40:52.302Z,979.34
2022-09-03T07:41:52.269Z,979.33
2022-09-03T07:42:55.194Z,979.39
2022-09-03T07:43:53.242Z,979.41
2022-09-03T07:44:52.231Z,979.34
2022-09-03T07:45:52.221Z,979.37
2022-09-03T07:46:52.430Z,979.36
2022-09-03T07:47:52.206Z,979.37
2022-09-03T07:48:52.189Z,979.39
2022-09-03T07:49:52.183Z,979.41
2022-09-03T07:50:52.176Z,979.43
2022-09-03T07:51:52.197Z,979.44
2022-09-03T07:52:52.155Z,979.48
2022-09-03T07:53:52.146Z,979.53
2022-09-03T07:54:52.136Z,979.54
2022-09-03T07:55:52.130Z,979.43
2022-09-03T07:56:52.118Z,979.42
2022-09-03T07:57:52.160Z,979.46
2022-09-03T07:58:52.098Z,979.47
2022-09-03T07:59:52.089Z,979.43
2022-09-03T08:00:52.147Z,979.39
2022-09-03T08:01:52.079Z,979.40
2022-09-03T08:02:52.144Z,979.42
2022-09-03T08:03:52.092Z,979.44
2022-09-03T08:04:52.040Z,979.43
2022-09-03T08:05:52.033Z,979.46
2022-09-03T08:06:52.019Z,979.42
2022-09-03T08:07:52.012Z,979.47
2022-09-03T08:08:52.035Z,979.40
2022-09-03T08:09:51.993Z,979.43
2022-09-03T08:10:51.984Z,979.37
2022-09-03T08:11:51.975Z,979.41
2022-09-03T08:12:51.980Z,979.41
2022-09-03T08:13:51.980Z,979.48
2022-09-03T08:14:51.943Z,979.41
2022-09-03T08:15:51.963Z,979.44
2022-09-03T08:16:51.925Z,979.48
2022-09-03T08:17:51.916Z,979.41
2022-09-03T08:18:51.914Z,979.38
2022-09-03T08:19:51.923Z,979.42
2022-09-03T08:20:51.886Z,979.31
2022-09-03T08:21:51.868Z,979.39
2022-09-03T08:22:51.866Z,979.39
2022-09-03T08:23:51.857Z,979.33
2022-09-03T08:24:51.877Z,979.36
2022-09-03T08:25:51.837Z,979.37
2022-09-03T08:26:52.675Z,979.41
2022-09-03T08:27:52.813Z,979.39
2022-09-03T08:28:51.807Z,979.37
2022-09-03T08:29:51.798Z,979.34
2022-09-03T08:30:51.828Z,979.37
2022-09-03T08:31:51.888Z,979.36
2022-09-03T08:32:51.766Z,979.41
2022-09-03T08:33:51.756Z,979.33
2022-09-03T08:34:51.747Z,979.35
2022-09-03T08:35:51.789Z,979.34
2022-09-03T08:36:51.728Z,979.37
2022-09-03T08:37:54.827Z,979.38
2022-09-03T08:38:53.709Z,979.39
2022-09-03T08:39:51.729Z,979.39
2022-09-03T08:40:51.685Z,979.39
2022-09-03T08:41:51.710Z,979.32
2022-09-03T08:42:51.668Z,979.35
2022-09-03T08:43:51.661Z,979.33
2022-09-03T08:44:51.653Z,979.34
2022-09-03T08:45:51.636Z,979.30
2022-09-03T08:46:51.726Z,979.33
2022-09-03T08:47:51.623Z,979.32
2022-09-03T08:48:51.615Z,979.38
2022-09-03T08:49:51.620Z,979.37
2022-09-03T08:50:51.592Z,979.36
2022-09-03T08:51:51.580Z,979.38
2022-09-03T08:52:51.610Z,979.35
2022-09-03T08:53:51.565Z,979.36
2022-09-03T08:54:51.553Z,979.37
2022-09-03T08:55:51.540Z,979.39
2022-09-03T08:56:51.534Z,979.39
2022-09-03T08:57:51.557Z,979.35
2022-09-03T08:58:51.512Z,979.29
2022-09-03T08:59:51.506Z,979.33
2022-09-03T09:00:51.501Z,979.37
2022-09-03T09:01:51.616Z,979.35
2022-09-03T09:02:51.508Z,979.37
2022-09-03T09:03:51.535Z,979.39
2022-09-03T09:04:51.456Z,979.39
2022-09-03T09:05:51.452Z,979.38
2022-09-03T09:06:51.434Z,979.27
2022-09-03T09:07:51.429Z,979.39
2022-09-03T09:08:51.446Z,979.33
2022-09-03T09:09:51.407Z,979.42
2022-09-03T09:10:51.397Z,979.25
2022-09-03T09:11:51.387Z,979.36
2022-09-03T09:12:51.378Z,979.32
2022-09-03T09:13:51.371Z,979.36
2022-09-03T09:14:51.392Z,979.34
2022-09-03T09:15:51.426Z,979.35
2022-09-03T09:16:51.342Z,979.30
2022-09-03T09:17:51.331Z,979.32
2022-09-03T09:18:51.325Z,979.34
2022-09-03T09:19:51.344Z,979.32
2022-09-03T09:20:51.305Z,979.31
2022-09-03T09:21:51.291Z,979.33
2022-09-03T09:22:51.284Z,979.26
2022-09-03T09:23:51.270Z,979.28
2022-09-03T09:24:51.263Z,979.27
2022-09-03T09:25:51.282Z,979.28
2022-09-03T09:26:51.242Z,979.30
2022-09-03T09:27:51.239Z,979.29
2022-09-03T09:28:51.217Z,979.28
2022-09-03T09:29:52.372Z,979.26
2022-09-03T09:30:51.277Z,979.28
2022-09-03T09:31:51.207Z,979.20
2022-09-03T09:32:51.179Z,979.31
2022-09-03T09:33:51.172Z,979.28
2022-09-03T09:34:52.509Z,979.31
2022-09-03T09:35:52.205Z,979.25
2022-09-03T09:36:51.144Z,979.27
2022-09-03T09:37:51.138Z,979.26
2022-09-03T09:38:51.131Z,979.25
2022-09-03T09:39:51.141Z,979.21
2022-09-03T09:40:51.111Z,979.20
2022-09-03T09:41:51.129Z,979.17
2022-09-03T09:42:51.087Z,979.12
2022-09-03T09:43:51.090Z,979.24
2022-09-03T09:44:51.066Z,979.18
2022-09-03T09:45:51.059Z,979.18
2022-09-03T09:46:54.680Z,979.15
2022-09-03T09:47:52.039Z,979.16
2022-09-03T09:48:51.032Z,979.13
2022-09-03T09:49:51.016Z,979.14
2022-09-03T09:50:51.041Z,979.17
2022-09-03T09:51:50.997Z,979.13
2022-09-03T09:52:51.020Z,979.14
2022-09-03T09:53:50.978Z,979.21
2022-09-03T09:54:50.966Z,979.14
2022-09-03T09:55:50.959Z,979.12
2022-09-03T09:56:50.946Z,979.20
2022-09-03T09:57:50.969Z,979.17
2022-09-03T09:58:50.924Z,979.19
2022-09-03T09:59:50.920Z,979.15
2022-09-03T10:00:50.909Z,979.25
2022-09-03T10:01:50.986Z,979.19
2022-09-03T10:02:50.967Z,979.23
2022-09-03T10:03:50.912Z,979.17
2022-09-03T10:04:50.864Z,979.15
2022-09-03T10:05:50.855Z,979.15
2022-09-03T10:06:50.850Z,979.08
2022-09-03T10:07:50.836Z,979.17
2022-09-03T10:08:50.901Z,979.15
2022-09-03T10:09:50.820Z,979.17
2022-09-03T10:10:50.813Z,979.17
2022-09-03T10:11:50.810Z,979.15
2022-09-03T10:12:50.794Z,979.11
2022-09-03T10:13:50.784Z,979.11
2022-09-03T10:14:50.804Z,979.11
2022-09-03T10:15:50.823Z,979.12
2022-09-03T10:16:50.760Z,979.12
2022-09-03T10:17:50.748Z,979.17
2022-09-03T10:18:50.735Z,979.11
2022-09-03T10:19:50.755Z,979.12
2022-09-03T10:20:50.716Z,979.01
2022-09-03T10:21:50.710Z,979.09
2022-09-03T10:22:56.464Z,979.05
2022-09-03T10:23:52.685Z,979.09
2022-09-03T10:24:50.676Z,979.03
2022-09-03T10:25:50.702Z,979.06
2022-09-03T10:26:50.659Z,979.04
2022-09-03T10:27:50.654Z,979.03
2022-09-03T10:28:50.648Z,979.05
2022-09-03T10:29:51.629Z,979.07
2022-09-03T10:30:50.694Z,979.11
2022-09-03T10:31:50.614Z,979.01
2022-09-03T10:32:50.600Z,979.01
2022-09-03T10:33:50.624Z,978.97
2022-09-03T10:34:50.587Z,978.93
2022-09-03T10:35:50.575Z,978.96
2022-09-03T10:36:50.604Z,979.01
2022-09-03T10:37:50.561Z,978.96
2022-09-03T10:38:50.553Z,978.95
2022-09-03T10:39:52.491Z,978.88
2022-09-03T10:40:51.534Z,978.89
2022-09-03T10:41:50.536Z,978.82
2022-09-03T10:42:50.517Z,978.82
2022-09-03T10:43:50.508Z,978.87
2022-09-03T10:44:50.522Z,978.81
2022-09-03T10:45:50.525Z,978.81
2022-09-03T10:46:50.514Z,978.77
2022-09-03T10:47:50.469Z,978.84
2022-09-03T10:48:50.458Z,978.84
2022-09-03T10:49:50.492Z,978.77
2022-09-03T10:50:50.442Z,978.67
2022-09-03T10:51:50.433Z,978.71
2022-09-03T10:52:50.420Z,978.78
2022-09-03T10:53:50.409Z,978.86
2022-09-03T10:54:50.402Z,978.83
2022-09-03T10:55:50.413Z,978.81
2022-09-03T10:56:50.385Z,978.88
2022-09-03T10:57:50.377Z,978.87
2022-09-03T10:58:50.365Z,978.83
2022-09-03T10:59:50.357Z,978.87
2022-09-03T11:00:50.369Z,978.85
2022-09-03T11:01:50.411Z,978.89
2022-09-03T11:02:50.375Z,978.85
2022-09-03T11:03:50.317Z,978.91
2022-09-03T11:04:50.309Z,978.87
2022-09-03T11:05:50.345Z,978.95
2022-09-03T11:06:50.293Z,978.94
2022-09-03T11:07:50.284Z,978.89
2022-09-03T11:08:50.270Z,978.81
2022-09-03T11:09:50.260Z,978.83
2022-09-03T11:10:50.273Z,978.72
2022-09-03T11:11:51.240Z,978.76
2022-09-03T11:12:53.076Z,978.79
2022-09-03T11:13:50.224Z,978.77
2022-09-03T11:14:50.222Z,978.74
2022-09-03T11:15:50.249Z,978.75
2022-09-03T11:16:50.208Z,978.71
2022-09-03T11:17:50.183Z,978.76
2022-09-03T11:18:50.178Z,978.73
2022-09-03T11:19:50.164Z,978.68
2022-09-03T11:20:50.153Z,978.66
2022-09-03T11:21:50.160Z,978.73
2022-09-03T11:22:50.134Z,978.70
2022-09-03T11:23:50.129Z,978.75
2022-09-03T11:24:51.122Z,978.66
2022-09-03T11:25:50.104Z,978.70
2022-09-03T11:26:50.139Z,978.75
2022-09-03T11:27:53.375Z,978.68
2022-09-03T11:28:52.085Z,978.71
2022-09-03T11:29:50.070Z,978.72
2022-09-03T11:30:50.119Z,978.77
2022-09-03T11:31:50.103Z,978.70
2022-09-03T11:32:54.265Z,978.72
2022-09-03T11:33:51.050Z,978.72
2022-09-03T11:34:50.034Z,978.76
2022-09-03T11:35:50.017Z,978.74
2022-09-03T11:36:50.036Z,978.72
2022-09-03T11:37:50.013Z,978.77
2022-09-03T11:38:49.986Z,978.70
2022-09-03T11:39:50.014Z,978.59
2022-09-03T11:40:49.969Z,978.67
2022-09-03T11:41:49.960Z,978.68
2022-09-03T11:42:49.969Z,978.65
2022-09-03T11:43:49.942Z,978.67
2022-09-03T11:44:51.952Z,978.65
2022-09-03T11:45:49.946Z,978.70
2022-09-03T11:46:49.917Z,978.70
2022-09-03T11:47:49.918Z,978.67
2022-09-03T11:48:49.898Z,978.61
2022-09-03T11:49:49.889Z,978.58
2022-09-03T11:50:49.865Z,978.64
2022-09-03T11:51:50.866Z,978.70
2022-09-03T11:52:49.890Z,978.67
2022-09-03T11:53:49.855Z,978.73
2022-09-03T11:54:49.837Z,978.64
2022-09-03T11:55:49.830Z,978.64
2022-09-03T11:56:49.821Z,978.64
2022-09-03T11:57:49.850Z,978.67
2022-09-03T11:58:49.801Z,978.57
2022-09-03T11:59:49.788Z,978.64
2022-09-03T12:00:49.783Z,978.61
2022-09-03T12:01:49.775Z,978.54
2022-09-03T12:02:49.836Z,978.61
2022-09-03T12:03:49.770Z,978.54
2022-09-03T12:04:49.815Z,978.54
2022-09-03T12:05:49.740Z,978.50
2022-09-03T12:06:49.732Z,978.52
2022-09-03T12:07:49.720Z,978.51
2022-09-03T12:08:49.724Z,978.51
2022-09-03T12:09:49.699Z,978.47
2022-09-03T12:10:49.692Z,978.55
2022-09-03T12:11:49.680Z,978.48
2022-09-03T12:12:49.670Z,978.48
2022-09-03T12:13:49.681Z,978.49
2022-09-03T12:14:49.657Z,978.48
2022-09-03T12:15:49.705Z,978.45
2022-09-03T12:16:49.636Z,978.47
2022-09-03T12:17:49.638Z,978.43
2022-09-03T12:18:49.662Z,978.45
2022-09-03T12:19:49.609Z,978.47
2022-09-03T12:20:49.601Z,978.45
2022-09-03T12:21:49.601Z,978.53
2022-09-03T12:22:49.645Z,978.55
2022-09-03T12:23:49.593Z,978.52
2022-09-03T12:24:49.564Z,978.39
2022-09-03T12:25:49.555Z,978.42
2022-09-03T12:26:49.543Z,978.46
2022-09-03T12:27:49.551Z,978.47
2022-09-03T12:28:49.570Z,978.57